Euskara    
Meteorología y climatología de Navarra
Datos de la estación - Meteo Navarra

Estación de Bardenas (Loma Negra) GN

Altitud 647 m.


Datos desde el 14/01/2021 hasta el 15/01/2021 en horario solar
Los datos son PROVISIONALES

Anterior Página 1 de 1 Siguiente Descargar: Formato para Excel 2000 o superior   Formato csv   Formato para OpenOffice Calc
Fecha Temperatura Humedad relativa Radiación global Insolación Precipitación Vel. viento 10 m Vel. viento 10 m Dir. viento 10 m
°C % W/m² s l/m² m/s km/h °
14/01/2021 0:00 2.6 96 0.0 0 0.0 14.6 52.5 322
14/01/2021 0:10 2.7 95 0.0 0 0.0 14.1 50.7 322
14/01/2021 0:20 2.4 95 0.0 0 0.0 13.8 49.7 322
14/01/2021 0:30 2.3 95 0.0 0 0.0 13.5 48.5 322
14/01/2021 0:40 2.3 95 0.0 0 0.0 14.2 51.1 324
14/01/2021 0:50 2.5 95 0.0 0 0.0 14.6 52.4 323
14/01/2021 1:00 2.4 95 0.0 0 0.0 14.7 52.8 322
14/01/2021 1:10 2.3 94 0.0 0 0.0 14.4 51.9 322
14/01/2021 1:20 2.0 95 0.0 0 0.0 14.2 51.0 322
14/01/2021 1:30 1.9 97 0.0 0 0.0 14.1 50.9 321
14/01/2021 1:40 1.6 97 0.0 0 0.0 14.2 51.1 316
14/01/2021 1:50 1.6 98 0.0 0 0.0 14.6 52.6 315
14/01/2021 2:00 1.5 98 0.0 0 0.0 13.9 50.0 315
14/01/2021 2:10 1.5 97 0.0 0 0.0 13.4 48.2 315
14/01/2021 2:20 1.3 98 0.0 0 0.0 12.7 45.8 314
14/01/2021 2:30 1.3 98 0.0 0 0.0 12.4 44.8 313
14/01/2021 2:40 1.1 98 0.0 0 0.0 12.4 44.8 311
14/01/2021 2:50 1.1 98 0.0 0 0.0 12.9 46.4 314
14/01/2021 3:00 1.2 98 0.0 0 0.0 13.5 48.6 316
14/01/2021 3:10 1.0 98 0.0 0 0.0 12.9 46.4 316
14/01/2021 3:20 1.0 98 0.0 0 0.0 12.5 45.1 312
14/01/2021 3:30 1.0 99 0.0 0 0.0 13.4 48.2 316
14/01/2021 3:40 1.2 98 0.0 0 0.0 13.6 49.0 314
14/01/2021 3:50 1.3 97 0.0 0 0.0 13.5 48.7 315
14/01/2021 4:00 1.2 97 0.0 0 0.0 13.5 48.7 314
14/01/2021 4:10 1.3 97 0.0 0 0.0 13.5 48.6 314
14/01/2021 4:20 1.2 96 0.0 0 0.0 13.2 47.3 315
14/01/2021 4:30 1.2 97 0.0 0 0.0 13.1 47.1 316
14/01/2021 4:40 1.4 96 0.0 0 0.0 13.3 48.0 315
14/01/2021 4:50 1.4 96 0.0 0 0.0 14.0 50.3 315
14/01/2021 5:00 1.4 96 0.0 0 0.0 12.5 44.9 312
14/01/2021 5:10 1.3 97 0.0 0 0.0 12.6 45.3 313
14/01/2021 5:20 1.4 96 0.0 0 0.0 13.4 48.1 316
14/01/2021 5:30 1.7 94 0.0 0 0.0 14.1 50.7 315
14/01/2021 5:40 1.8 94 0.0 0 0.0 14.2 51.1 315
14/01/2021 5:50 1.8 94 0.0 0 0.0 14.8 53.4 314
14/01/2021 6:00 1.9 93 0.0 0 0.1 15.1 54.4 314
14/01/2021 6:10 1.8 93 0.0 0 0.0 15.3 54.9 313
14/01/2021 6:20 1.6 94 0.0 0 0.0 15.1 54.3 315
14/01/2021 6:30 1.5 95 0.0 0 0.0 13.9 49.9 315
14/01/2021 6:40 1.5 95 0.0 0 0.0 13.9 50.1 316
14/01/2021 6:50 1.5 95 0.0 0 0.0 14.1 50.8 315
14/01/2021 7:00 1.6 95 0.0 0 0.0 13.2 47.6 316
14/01/2021 7:10 1.3 95 0.0 0 0.0 12.5 45.0 316
14/01/2021 7:20 1.3 95 0.0 0 0.0 13.5 48.6 314
14/01/2021 7:30 1.1 97 0.0 0 0.0 13.7 49.5 316
14/01/2021 7:40 1.3 96 1.7 0 0.0 14.2 51.0 317
14/01/2021 7:50 1.3 96 31.1 336 0.0 14.0 50.4 317
14/01/2021 8:00 1.3 96 53.8 600 0.0 13.5 48.7 319
14/01/2021 8:10 1.4 96 78.6 600 0.0 13.5 48.5 320
14/01/2021 8:20 1.5 94 73.5 600 0.0 13.3 47.9 316
14/01/2021 8:30 1.5 94 111.5 536 0.0 13.0 46.7 316
14/01/2021 8:40 1.8 94 87.1 346 0.0 13.0 46.9 315
14/01/2021 8:50 1.9 93 180.8 600 0.0 13.1 47.1 315
14/01/2021 9:00 2.2 92 207.3 600 0.0 13.6 49.1 314
14/01/2021 9:10 2.4 91 229.2 600 0.0 13.9 50.0 312
14/01/2021 9:20 2.4 90 224.3 600 0.0 13.1 47.0 315
14/01/2021 9:30 2.5 90 265.9 600 0.0 12.5 45.1 310
14/01/2021 9:40 2.6 89 296.2 600 0.0 12.5 45.1 314
14/01/2021 9:50 2.8 89 317.3 600 0.0 13.1 47.2 315
14/01/2021 10:00 2.9 89 336.7 600 0.0 13.1 47.0 317
14/01/2021 10:10 3.2 88 360.4 600 0.0 12.9 46.6 316
14/01/2021 10:20 3.5 87 382.2 600 0.0 11.9 42.9 317
14/01/2021 10:30 4.0 87 418.5 600 0.0 13.1 47.3 320
14/01/2021 10:40 4.4 86 474.3 600 0.0 14.2 51.0 323
14/01/2021 10:50 4.5 84 435.5 600 0.0 16.0 57.6 319
14/01/2021 11:00 4.7 84 538.1 600 0.0 13.9 50.0 324
14/01/2021 11:10 4.7 83 463.7 594 0.0 14.4 51.9 322
14/01/2021 11:20 4.7 83 500.6 600 0.0 15.3 55.0 322
14/01/2021 11:30 5.0 82 522.6 584 0.0 14.3 51.4 329
14/01/2021 11:40 5.2 82 441.5 586 0.0 14.8 53.3 330
14/01/2021 11:50 5.0 82 516.3 600 0.0 13.8 49.7 331
14/01/2021 12:00 5.5 80 584.0 600 0.0 12.1 43.7 329
14/01/2021 12:10 5.8 79 592.6 600 0.0 11.9 42.9 326
14/01/2021 12:20 5.7 79 522.9 600 0.0 13.1 47.2 324
14/01/2021 12:30 5.5 80 521.6 600 0.0 12.8 45.9 329
14/01/2021 12:40 5.5 80 515.5 600 0.0 12.6 45.3 328
14/01/2021 12:50 5.8 79 499.1 570 0.0 11.4 41.2 329
14/01/2021 13:00 5.8 79 451.1 566 0.0 12.4 44.5 328
14/01/2021 13:10 5.9 79 421.6 534 0.0 12.0 43.1 328
14/01/2021 13:20 6.0 79 360.1 574 0.0 11.6 41.7 326
14/01/2021 13:30 6.2 78 308.1 516 0.0 11.1 40.0 330
14/01/2021 13:40 6.1 79 314.0 408 0.0 12.6 45.3 330
14/01/2021 13:50 6.4 78 400.1 584 0.0 11.8 42.4 326
14/01/2021 14:00 6.3 77 419.9 544 0.0 12.4 44.8 326
14/01/2021 14:10 6.5 77 424.5 600 0.0 12.2 44.0 326
14/01/2021 14:20 6.5 76 395.7 600 0.0 13.8 49.5 323
14/01/2021 14:30 6.5 76 372.0 600 0.0 13.0 46.9 325
14/01/2021 14:40 6.3 76 316.1 562 0.0 12.6 45.4 321
14/01/2021 14:50 6.4 76 344.4 598 0.0 12.6 45.3 325
14/01/2021 15:00 6.5 75 318.2 600 0.0 13.3 47.8 321
14/01/2021 15:10 6.4 76 267.0 600 0.0 13.2 47.4 332
14/01/2021 15:20 6.2 76 237.3 600 0.0 14.0 50.4 328
14/01/2021 15:30 6.2 76 210.9 600 0.0 14.0 50.3 326
14/01/2021 15:40 6.2 76 182.1 600 0.0 14.1 50.9 325
14/01/2021 15:50 6.1 76 113.2 430 0.0 12.9 46.5 329
14/01/2021 16:00 6.3 77 130.4 504 0.0 14.1 50.7 330
14/01/2021 16:10 6.5 76 124.7 600 0.0 12.8 46.0 327
14/01/2021 16:20 6.3 78 74.7 334 0.0 11.2 40.1 320
14/01/2021 16:30 6.1 80 58.2 598 0.0 11.2 40.2 319
14/01/2021 16:40 5.7 80 32.4 256 0.0 11.4 41.0 320
14/01/2021 16:50 5.5 82 3.2 0 0.0 11.7 42.1 322
14/01/2021 17:00 5.2 83 0.0 0 0.0 10.6 38.0 327
14/01/2021 17:10 5.1 83 0.0 0 0.0 10.5 37.9 324
14/01/2021 17:20 4.9 83 0.0 0 0.0 11.2 40.1 316
14/01/2021 17:30 4.7 84 0.0 0 0.0 10.7 38.7 319
14/01/2021 17:40 4.7 86 0.0 0 0.0 10.2 36.7 317
14/01/2021 17:50 4.6 87 0.0 0 0.0 10.3 37.2 320
14/01/2021 18:00 4.6 88 0.0 0 0.0 11.5 41.5 316
14/01/2021 18:10 4.7 89 0.0 0 0.0 11.9 42.9 318
14/01/2021 18:20 4.8 90 0.0 0 0.0 10.8 39.0 319
14/01/2021 18:30 4.7 91 0.0 0 0.0 10.3 37.0 318
14/01/2021 18:40 4.6 93 0.0 0 0.0 10.8 39.0 321
14/01/2021 18:50 4.6 94 0.0 0 0.0 11.2 40.1 328
14/01/2021 19:00 4.5 94 0.0 0 0.0 11.1 40.1 332
14/01/2021 19:10 4.4 94 0.0 0 0.0 12.2 43.8 331
14/01/2021 19:20 4.4 95 0.0 0 0.0 13.2 47.5 331
14/01/2021 19:30 4.5 97 0.0 0 0.0 13.2 47.4 330
14/01/2021 19:40 4.5 98 0.0 0 0.0 13.4 48.3 332
14/01/2021 19:50 4.5 98 0.0 0 0.0 13.2 47.4 332
14/01/2021 20:00 4.6 97 0.0 0 0.0 12.1 43.7 330
14/01/2021 20:10 4.4 98 0.0 0 0.0 11.1 40.0 331
14/01/2021 20:20 4.5 98 0.0 0 0.0 11.0 39.6 334
14/01/2021 20:30 4.6 98 0.0 0 0.0 11.4 40.9 332
14/01/2021 20:40 4.7 98 0.0 0 0.0 11.3 40.8 330
14/01/2021 20:50 4.4 99 0.0 0 0.0 10.5 37.7 333
14/01/2021 21:00 4.3 100 0.0 0 0.0 10.6 38.2 334
14/01/2021 21:10 4.1 100 0.0 0 0.0 10.7 38.4 329
14/01/2021 21:20 4.2 100 0.0 0 0.0 11.3 40.5 329
14/01/2021 21:30 4.3 100 0.0 0 0.0 11.0 39.5 326
14/01/2021 21:40 4.2 100 0.0 0 0.0 10.6 38.1 325
14/01/2021 21:50 4.3 100 0.0 0 0.0 11.1 39.9 329
14/01/2021 22:00 4.5 100 0.0 0 0.0 11.1 40.1 325
14/01/2021 22:10 4.6 100 0.0 0 0.0 11.0 39.4 326
14/01/2021 22:20 4.4 100 0.0 0 0.0 11.4 41.1 324
14/01/2021 22:30 4.4 100 0.0 0 0.0 11.6 41.6 324
14/01/2021 22:40 4.4 100 0.0 0 0.0 10.6 38.1 324
14/01/2021 22:50 4.0 100 0.0 0 0.0 10.0 36.1 327
14/01/2021 23:00 4.3 100 0.0 0 0.0 11.3 40.6 326
14/01/2021 23:10 4.3 100 0.0 0 0.0 11.8 42.3 330
14/01/2021 23:20 4.5 100 0.0 0 0.0 11.9 43.0 325
14/01/2021 23:30 4.6 100 0.0 0 0.0 12.9 46.6 324
14/01/2021 23:40 4.7 100 0.0 0 0.0 13.8 49.8 321
14/01/2021 23:50 4.9 100 0.0 0 0.0 13.4 48.2 323
Anterior Página 1 de 1 Siguiente

NOTA: Tipo de datos según el color:
   - Valores diarios o 10 minutos correctos
   - Valores diarios calculados a partir de un número de datos 10 minutos menor que 144 y mayor que 120, o de un número de datos semihorarios menor que 48 y mayor que 40 (caso de las estaciones de INTIA Y Ministerio)
   - Valores diez minutos estimados


Contacto        Enlaces        Aviso legal